Terminal Aerodrome Forecast
Issued by NWS Paducah, KY

Home | Current Version | Previous Version | Text Only | Print | Product List | Glossary Off
Versions: 1 2 3 4 5 6 7 8 9 10 11 12 13 14 15 16 17 18 19 20 21 22

000
FTUS43 KPAH 291720
TAFEVV
TAF
KEVV 291720Z 2918/3018 18008KT P6SM BKN020
     FM300000 18007KT P6SM SCT020 BKN030
     FM300600 18006KT P6SM SCT030 BKN120
      TEMPO 3009/3013 5SM BR
     FM301500 19010KT P6SM VCTS BKN030CB=

USA.gov is the U.S. government's official web portal to all federal, state and local government web resources and services.